Time;durP1;ratioP1;P1;durP2;ratioP2;P2;SDS_P1;SDS_P2;PMS_P1;PMS_P2;Temp;Humidity;BMP_temperature;BMP_pressure;BME280_temperature;BME280_humidity;BME280_pressure;Samples;Min_cycle;Max_cycle;Signal;HPM_P1;HPM_P2
2023/01/26 00:02:12;;;;;;;15.03;7.50;;;;;;;;;;5076227;28;20032;-82
2023/01/26 00:04:38;;;;;;;15.07;8.07;;;;;;;;;;5093219;28;20047;-81
2023/01/26 00:07:04;;;;;;;14.73;8.40;;;;;;;;;;5075997;28;20060;-80
2023/01/26 00:09:29;;;;;;;16.80;8.03;;;;;;;;;;5093304;28;20044;-81
2023/01/26 00:11:55;;;;;;;15.03;7.77;;;;;;;;;;5076526;28;20386;-72
2023/01/26 00:14:21;;;;;;;16.87;7.80;;;;;;;;;;5076488;28;20482;-80
2023/01/26 00:16:46;;;;;;;13.67;7.43;;;;;;;;;;5075948;28;20036;-81
2023/01/26 00:19:12;;;;;;;14.63;7.77;;;;;;;;;;5075957;28;20047;-80
2023/01/26 00:21:37;;;;;;;18.43;8.00;;;;;;;;;;5075777;28;20028;-81
2023/01/26 00:24:03;;;;;;;15.87;8.00;;;;;;;;;;5092408;28;20032;-81
2023/01/26 00:26:29;;;;;;;13.60;7.53;;;;;;;;;;5075675;28;20100;-81
2023/01/26 00:28:55;;;;;;;14.97;8.37;;;;;;;;;;5076768;28;20134;-81
2023/01/26 00:31:23;;;;;;;18.43;8.27;;;;;;;;;;5082176;28;20148;-81
2023/01/26 00:33:49;;;;;;;18.17;8.97;;;;;;;;;;5075739;28;20044;-82
2023/01/26 00:36:14;;;;;;;13.43;7.63;;;;;;;;;;5092707;28;20046;-81
2023/01/26 00:38:40;;;;;;;15.97;8.40;;;;;;;;;;5075676;28;20048;-82
2023/01/26 00:41:08;;;;;;;16.80;7.60;;;;;;;;;;5092612;28;20114;-81
2023/01/26 00:43:33;;;;;;;13.07;7.13;;;;;;;;;;5075700;28;20377;-81
2023/01/26 00:45:59;;;;;;;14.50;8.53;;;;;;;;;;5075358;28;20060;-81
2023/01/26 00:48:24;;;;;;;14.00;8.13;;;;;;;;;;5075501;28;20065;-81
2023/01/26 00:50:50;;;;;;;15.80;7.70;;;;;;;;;;5075437;28;20043;-80
2023/01/26 00:53:16;;;;;;;13.90;7.57;;;;;;;;;;5075152;28;20347;-81
2023/01/26 00:55:44;;;;;;;13.50;7.80;;;;;;;;;;5075327;28;20039;-81
2023/01/26 00:58:10;;;;;;;14.63;7.73;;;;;;;;;;5092212;28;20042;-81
2023/01/26 01:00:36;;;;;;;11.90;7.40;;;;;;;;;;5075056;28;20035;-80
2023/01/26 01:03:03;;;;;;;12.10;7.33;;;;;;;;;;5074893;28;20072;-80
2023/01/26 01:05:29;;;;;;;13.33;7.77;;;;;;;;;;5075128;28;20155;-80
2023/01/26 01:07:55;;;;;;;12.63;6.90;;;;;;;;;;5075563;28;20039;-81
2023/01/26 01:10:23;;;;;;;13.77;7.33;;;;;;;;;;5075168;28;20052;-80
2023/01/26 01:12:48;;;;;;;11.27;7.23;;;;;;;;;;5074964;28;20074;-81
2023/01/26 01:15:15;;;;;;;11.30;6.77;;;;;;;;;;5074730;28;20423;-81
2023/01/26 01:17:40;;;;;;;17.20;6.40;;;;;;;;;;5074813;28;20032;-80
2023/01/26 01:20:08;;;;;;;13.93;7.00;;;;;;;;;;5074852;28;20039;-80
2023/01/26 01:22:35;;;;;;;13.83;7.13;;;;;;;;;;5074513;28;20486;-81
2023/01/26 01:25:00;;;;;;;11.37;7.07;;;;;;;;;;5108680;28;20115;-78
2023/01/26 01:27:29;;;;;;;13.40;7.03;;;;;;;;;;5091860;28;20431;-80
2023/01/26 01:29:54;;;;;;;14.53;6.87;;;;;;;;;;5074955;28;20036;-79
2023/01/26 01:32:20;;;;;;;12.23;7.47;;;;;;;;;;5074624;28;20097;-80
2023/01/26 01:34:46;;;;;;;10.77;6.63;;;;;;;;;;5074607;28;20032;-80
2023/01/26 01:37:12;;;;;;;13.77;6.73;;;;;;;;;;5090705;28;20024;-80
2023/01/26 01:39:38;;;;;;;13.13;6.50;;;;;;;;;;5073787;28;20146;-78
2023/01/26 01:42:03;;;;;;;11.13;7.17;;;;;;;;;;5057223;28;20035;-79
2023/01/26 01:44:29;;;;;;;12.40;6.00;;;;;;;;;;5074654;28;20386;-79
2023/01/26 01:47:13;;;;;;;10.50;6.17;;;;;;;;;;5074261;28;20036;-79
2023/01/26 01:49:44;;;;;;;12.83;6.83;;;;;;;;;;5074390;28;20389;-79
2023/01/26 01:52:25;;;;;;;13.43;6.90;;;;;;;;;;5074361;28;20121;-79
2023/01/26 01:55:00;;;;;;;9.90;6.27;;;;;;;;;;5074140;28;20130;-78
2023/01/26 01:57:43;;;;;;;14.07;6.97;;;;;;;;;;5074762;28;20631;-79
2023/01/26 02:00:11;;;;;;;11.60;7.40;;;;;;;;;;5074188;28;20036;-79
2023/01/26 02:02:40;;;;;;;14.23;7.03;;;;;;;;;;5074429;28;20035;-80
2023/01/26 02:05:25;;;;;;;11.00;6.03;;;;;;;;;;5076915;28;20123;-79
2023/01/26 02:07:51;;;;;;;12.83;6.20;;;;;;;;;;5113603;28;20036;-79
2023/01/26 02:10:18;;;;;;;9.60;5.53;;;;;;;;;;5097481;28;20508;-78
2023/01/26 02:12:46;;;;;;;12.93;6.53;;;;;;;;;;5114934;28;20042;-78
2023/01/26 02:15:12;;;;;;;11.17;6.43;;;;;;;;;;5103735;28;20454;-79
2023/01/26 02:17:38;;;;;;;11.90;6.40;;;;;;;;;;5096075;28;20037;-79
2023/01/26 02:20:05;;;;;;;12.73;6.73;;;;;;;;;;5112884;28;20061;-79
2023/01/26 02:22:37;;;;;;;10.60;6.80;;;;;;;;;;5114770;28;20039;-79
2023/01/26 02:25:12;;;;;;;13.27;7.03;;;;;;;;;;5119570;28;20072;-70
2023/01/26 02:27:38;;;;;;;11.87;7.37;;;;;;;;;;5100012;28;20084;-80
2023/01/26 02:30:04;;;;;;;10.67;6.43;;;;;;;;;;5111680;28;20035;-79
2023/01/26 02:32:31;;;;;;;13.30;7.43;;;;;;;;;;5113044;28;20039;-80
2023/01/26 02:34:59;;;;;;;10.47;6.77;;;;;;;;;;5115583;28;20373;-80
2023/01/26 02:37:24;;;;;;;14.20;7.50;;;;;;;;;;5131808;28;20043;-80
2023/01/26 02:40:01;;;;;;;11.63;6.37;;;;;;;;;;5115728;28;20042;-80
2023/01/26 02:42:40;;;;;;;13.53;7.87;;;;;;;;;;5109535;28;20155;-80
2023/01/26 02:45:07;;;;;;;13.10;7.13;;;;;;;;;;5115342;28;20031;-81
2023/01/26 02:47:32;;;;;;;11.90;7.50;;;;;;;;;;5098422;28;20038;-81
2023/01/26 02:49:59;;;;;;;12.67;7.43;;;;;;;;;;5098284;28;20031;-78
2023/01/26 02:52:27;;;;;;;11.13;6.77;;;;;;;;;;5100239;27;20066;-81
2023/01/26 02:57:44;;;;;;;12.73;7.07;;;;;;;;;;5118753;27;20062;-80
2023/01/26 03:00:11;;;;;;;12.83;8.03;;;;;;;;;;5103177;27;20027;-81
2023/01/26 03:02:37;;;;;;;12.13;7.20;;;;;;;;;;5118548;27;20126;-80
2023/01/26 03:05:03;;;;;;;14.60;7.80;;;;;;;;;;5099586;27;20059;-79
2023/01/26 03:07:29;;;;;;;12.80;7.47;;;;;;;;;;5100389;27;20027;-80
2023/01/26 03:09:57;;;;;;;13.47;7.03;;;;;;;;;;5100604;27;20048;-81
2023/01/26 03:12:23;;;;;;;14.53;7.17;;;;;;;;;;5118064;27;20038;-80
2023/01/26 03:15:33;;;;;;;14.90;7.50;;;;;;;;;;5099078;27;20088;-80
2023/01/26 03:17:35;;;;;;;16.00;8.47;;;;;;;;;;5100948;27;20122;-80
2023/01/26 03:28:26;;;;;;;14.27;7.63;;;;;;;;;;5117249;27;20540;-80
2023/01/26 03:30:54;;;;;;;13.33;7.30;;;;;;;;;;5117199;27;20041;-80
2023/01/26 03:33:20;;;;;;;12.40;7.67;;;;;;;;;;5099590;27;20027;-80
2023/01/26 03:35:47;;;;;;;13.73;7.03;;;;;;;;;;5097843;27;20045;-80
2023/01/26 03:38:13;;;;;;;12.70;7.00;;;;;;;;;;5100042;27;20027;-79
2023/01/26 03:57:19;;;;;;;16.00;7.30;;;;;;;;;;5115784;27;20547;-74
2023/01/26 03:59:44;;;;;;;13.37;7.20;;;;;;;;;;5081522;27;20030;-77
2023/01/26 04:10:34;;;;;;;14.60;7.50;;;;;;;;;;5117099;27;20553;-81
2023/01/26 04:21:35;;;;;;;12.83;6.77;;;;;;;;;;5105634;27;20061;-81
2023/01/26 04:24:13;;;;;;;13.50;7.10;;;;;;;;;;5118668;27;20031;-80
2023/01/26 04:26:38;;;;;;;;;;;;;;;;;;5116911;27;20126;-72
2023/01/26 04:29:11;;;;;;;16.00;7.43;;;;;;;;;;5082513;27;19927;-78
2023/01/26 04:31:38;;;;;;;13.55;7.43;;;;;;;;;;5099152;27;20049;-75
2023/01/26 04:34:05;;;;;;;13.80;6.90;;;;;;;;;;5116448;27;20038;-73
2023/01/26 04:36:31;;;;;;;10.47;6.50;;;;;;;;;;5115989;27;20046;-73
2023/01/26 04:38:58;;;;;;;14.30;6.87;;;;;;;;;;5081596;27;20031;-74
2023/01/26 04:41:24;;;;;;;11.83;7.07;;;;;;;;;;5101911;27;20381;-70
2023/01/26 04:43:58;;;;;;;10.60;6.17;;;;;;;;;;5098077;27;20031;-72
2023/01/26 04:46:23;;;;;;;11.23;6.33;;;;;;;;;;5115280;27;20593;-74
2023/01/26 04:48:49;;;;;;;12.63;7.07;;;;;;;;;;5096982;27;20088;-72
2023/01/26 04:51:18;;;;;;;12.60;7.20;;;;;;;;;;5098531;27;20027;-72
2023/01/26 04:53:44;;;;;;;11.03;6.50;;;;;;;;;;5098222;27;20143;-71
2023/01/26 04:56:16;;;;;;;11.83;6.87;;;;;;;;;;5098723;27;20499;-72
2023/01/26 04:58:45;;;;;;;13.33;7.30;;;;;;;;;;5088230;27;20035;-73
2023/01/26 05:01:11;;;;;;;14.13;6.47;;;;;;;;;;5077234;28;20042;-67
2023/01/26 05:03:37;;;;;;;11.07;6.37;;;;;;;;;;5094348;28;20097;-74
2023/01/26 05:06:02;;;;;;;12.77;6.87;;;;;;;;;;5060158;28;20473;-73
2023/01/26 05:08:28;;;;;;;16.43;7.10;;;;;;;;;;5094002;28;20458;-73
2023/01/26 05:10:54;;;;;;;14.47;7.10;;;;;;;;;;5077059;28;20112;-72
2023/01/26 05:13:41;;;;;;;10.07;6.47;;;;;;;;;;5093648;28;20036;-74
2023/01/26 05:16:14;;;;;;;12.57;6.60;;;;;;;;;;5076571;28;20134;-73
2023/01/26 05:19:00;;;;;;;14.20;7.00;;;;;;;;;;5075575;28;20063;-74
2023/01/26 05:21:36;;;;;;;10.23;6.07;;;;;;;;;;5093561;28;20035;-74
2023/01/26 05:24:02;;;;;;;13.67;6.67;;;;;;;;;;5076705;28;20035;-71
2023/01/26 05:26:46;;;;;;;10.63;6.20;;;;;;;;;;5092482;28;20100;-77
2023/01/26 05:29:16;;;;;;;11.43;6.47;;;;;;;;;;5098308;27;20035;-77
2023/01/26 05:31:42;;;;;;;10.77;6.43;;;;;;;;;;5097067;27;20034;-68
2023/01/26 05:34:07;;;;;;;12.50;6.87;;;;;;;;;;5097282;27;20039;-80
2023/01/26 05:36:35;;;;;;;11.10;6.70;;;;;;;;;;5097531;27;20464;-78
2023/01/26 05:39:00;;;;;;;10.70;6.43;;;;;;;;;;5114762;27;20087;-72
2023/01/26 05:41:26;;;;;;;14.67;7.40;;;;;;;;;;5113556;27;20039;-74
2023/01/26 05:44:24;;;;;;;14.27;6.53;;;;;;;;;;5091871;28;20046;-75
2023/01/26 05:46:55;;;;;;;14.70;7.13;;;;;;;;;;5097248;28;20137;-71
2023/01/26 05:49:21;;;;;;;10.07;6.60;;;;;;;;;;5081796;28;20074;-71
2023/01/26 05:51:48;;;;;;;12.23;6.50;;;;;;;;;;5097985;28;20594;-76
2023/01/26 05:54:14;;;;;;;11.87;7.20;;;;;;;;;;5115677;28;20122;-75
2023/01/26 05:56:40;;;;;;;10.17;6.03;;;;;;;;;;5097740;28;20039;-69
2023/01/26 05:59:06;;;;;;;10.77;6.53;;;;;;;;;;5097103;28;20092;-69
2023/01/26 06:01:33;;;;;;;10.80;6.07;;;;;;;;;;5114016;28;20548;-69
2023/01/26 06:04:02;;;;;;;12.00;7.00;;;;;;;;;;5096671;28;20045;-69
2023/01/26 06:06:34;;;;;;;10.77;6.53;;;;;;;;;;5113731;28;20142;-69
2023/01/26 06:09:26;;;;;;;11.90;7.00;;;;;;;;;;5111126;28;20092;-68
2023/01/26 06:12:12;;;;;;;10.63;6.30;;;;;;;;;;5095858;28;20073;-69
2023/01/26 06:14:55;;;;;;;9.33;6.23;;;;;;;;;;5096392;28;20094;-69
2023/01/26 06:17:23;;;;;;;9.30;5.30;;;;;;;;;;5113620;28;20043;-68
2023/01/26 06:19:55;;;;;;;12.13;6.20;;;;;;;;;;5096783;28;20038;-69
2023/01/26 06:22:21;;;;;;;10.90;6.43;;;;;;;;;;5096421;28;20027;-69
2023/01/26 06:24:48;;;;;;;10.57;5.87;;;;;;;;;;5113602;28;20042;-69
2023/01/26 06:27:15;;;;;;;9.93;6.33;;;;;;;;;;5098419;27;20058;-70
2023/01/26 06:29:43;;;;;;;13.33;6.00;;;;;;;;;;5100317;27;20031;-67
2023/01/26 06:32:10;;;;;;;11.50;5.70;;;;;;;;;;5100296;27;20031;-68
2023/01/26 06:34:36;;;;;;;12.10;6.40;;;;;;;;;;5099546;27;20050;-68
2023/01/26 06:37:03;;;;;;;12.57;6.60;;;;;;;;;;5099927;27;20042;-66
2023/01/26 06:39:33;;;;;;;9.00;5.53;;;;;;;;;;5100224;27;20111;-67
2023/01/26 06:41:59;;;;;;;12.20;6.47;;;;;;;;;;5134437;27;20041;-70
2023/01/26 06:44:26;;;;;;;10.23;5.80;;;;;;;;;;5135140;27;20039;-68
2023/01/26 06:46:51;;;;;;;9.80;5.53;;;;;;;;;;5099888;27;20126;-69
2023/01/26 06:49:17;;;;;;;15.47;5.93;;;;;;;;;;5120862;27;20127;-71
2023/01/26 06:51:44;;;;;;;13.60;6.13;;;;;;;;;;5100148;27;20043;-69
2023/01/26 06:54:10;;;;;;;15.73;5.60;;;;;;;;;;5100089;27;20054;-69
2023/01/26 06:56:55;;;;;;;11.83;6.13;;;;;;;;;;5116664;27;20033;-69
2023/01/26 06:59:41;;;;;;;11.97;6.10;;;;;;;;;;5118561;27;20060;-69
2023/01/26 07:02:23;;;;;;;9.57;5.37;;;;;;;;;;5116900;27;20456;-69
2023/01/26 07:04:49;;;;;;;12.40;5.77;;;;;;;;;;5099734;27;20027;-69
2023/01/26 07:07:15;;;;;;;10.30;5.77;;;;;;;;;;5116407;27;20070;-69
2023/01/26 07:09:40;;;;;;;10.10;5.93;;;;;;;;;;5099464;27;20031;-69
2023/01/26 07:12:06;;;;;;;9.33;5.50;;;;;;;;;;5115918;27;20039;-70
2023/01/26 07:14:32;;;;;;;9.87;5.33;;;;;;;;;;5082575;27;20153;-69
2023/01/26 07:16:57;;;;;;;9.13;5.80;;;;;;;;;;5116289;27;20023;-69
2023/01/26 07:19:23;;;;;;;12.47;6.13;;;;;;;;;;5099400;27;20403;-69
2023/01/26 07:21:48;;;;;;;13.97;6.43;;;;;;;;;;5116855;27;20039;-72
2023/01/26 07:24:14;;;;;;;10.43;6.50;;;;;;;;;;5099264;27;20031;-70
2023/01/26 07:26:40;;;;;;;9.97;6.30;;;;;;;;;;5116289;27;20142;-69
2023/01/26 07:29:06;;;;;;;8.00;5.03;;;;;;;;;;5099315;27;20031;-70
2023/01/26 07:31:31;;;;;;;11.47;6.90;;;;;;;;;;5116035;27;20801;-67
2023/01/26 07:33:57;;;;;;;11.60;5.70;;;;;;;;;;5098958;27;20031;-69
2023/01/26 07:36:22;;;;;;;8.97;5.43;;;;;;;;;;5082528;27;20474;-69
2023/01/26 07:38:48;;;;;;;9.53;5.93;;;;;;;;;;5097936;27;20038;-69
2023/01/26 07:41:14;;;;;;;11.83;5.83;;;;;;;;;;5098886;27;20031;-69
2023/01/26 07:43:41;;;;;;;10.90;5.27;;;;;;;;;;5098450;27;20484;-68
2023/01/26 07:46:09;;;;;;;12.67;5.63;;;;;;;;;;5116202;27;20081;-69
2023/01/26 07:48:35;;;;;;;8.20;5.40;;;;;;;;;;5098913;27;20031;-69
2023/01/26 07:51:02;;;;;;;10.17;5.50;;;;;;;;;;5099093;27;20063;-69
2023/01/26 07:53:32;;;;;;;10.33;6.27;;;;;;;;;;5115690;27;20035;-69
2023/01/26 07:56:25;;;;;;;12.23;5.53;;;;;;;;;;5115610;27;20537;-69
2023/01/26 07:58:51;;;;;;;10.47;5.17;;;;;;;;;;5095909;27;20053;-70
2023/01/26 08:01:17;;;;;;;9.90;5.07;;;;;;;;;;5081726;27;20031;-69
2023/01/26 08:03:44;;;;;;;11.13;5.63;;;;;;;;;;5096610;27;20030;-70
2023/01/26 08:06:10;;;;;;;9.97;5.70;;;;;;;;;;5098425;27;20396;-68
2023/01/26 08:08:38;;;;;;;14.70;6.40;;;;;;;;;;5098512;27;20066;-69
2023/01/26 08:11:04;;;;;;;9.17;5.53;;;;;;;;;;5098396;27;20491;-70
2023/01/26 08:13:32;;;;;;;9.67;5.63;;;;;;;;;;5097787;27;20027;-70
2023/01/26 08:16:10;;;;;;;6.63;4.67;;;;;;;;;;5097690;27;20138;-70
2023/01/26 08:18:40;;;;;;;10.37;5.73;;;;;;;;;;5098214;27;20027;-72
2023/01/26 08:21:08;;;;;;;20.73;5.97;;;;;;;;;;5133289;27;20034;-73
2023/01/26 08:23:35;;;;;;;13.07;5.17;;;;;;;;;;5114430;27;20031;-74
2023/01/26 08:26:02;;;;;;;9.23;5.50;;;;;;;;;;5081572;27;20050;-74
2023/01/26 08:28:28;;;;;;;9.03;5.47;;;;;;;;;;5087525;28;20518;-74
2023/01/26 08:30:55;;;;;;;7.83;4.53;;;;;;;;;;5061091;28;20039;-74
2023/01/26 08:33:21;;;;;;;9.93;5.27;;;;;;;;;;5060864;28;20036;-74
2023/01/26 08:35:47;;;;;;;8.90;5.60;;;;;;;;;;5084519;27;20465;-74
2023/01/26 08:38:13;;;;;;;9.17;5.03;;;;;;;;;;5092413;27;20023;-73
2023/01/26 08:40:38;;;;;;;10.70;5.10;;;;;;;;;;5095944;27;20035;-75
2023/01/26 08:43:04;;;;;;;10.27;5.30;;;;;;;;;;5080464;27;20046;-74
2023/01/26 08:45:30;;;;;;;11.77;6.07;;;;;;;;;;5079672;27;20083;-77
2023/01/26 08:47:56;;;;;;;8.77;5.20;;;;;;;;;;5093375;27;20420;-74
2023/01/26 08:50:23;;;;;;;9.47;5.37;;;;;;;;;;5112652;27;20035;-76
2023/01/26 08:52:54;;;;;;;8.23;4.33;;;;;;;;;;5108710;27;20453;-76
2023/01/26 08:55:21;;;;;;;10.07;4.77;;;;;;;;;;5097582;27;20067;-77
2023/01/26 08:57:50;;;;;;;11.30;5.60;;;;;;;;;;5079434;27;20107;-76
2023/01/26 09:00:17;;;;;;;8.60;5.35;;;;;;;;;;5088451;28;20063;-75
2023/01/26 09:02:43;;;;;;;9.57;6.23;;;;;;;;;;5093681;28;20762;-77
2023/01/26 09:05:09;;;;;;;11.10;5.40;;;;;;;;;;5094097;27;20130;-75
2023/01/26 09:07:35;;;;;;;9.27;5.47;;;;;;;;;;5064510;28;20063;-78
2023/01/26 09:10:02;;;;;;;10.57;5.50;;;;;;;;;;5110492;28;20624;-75
2023/01/26 09:12:28;;;;;;;9.60;5.90;;;;;;;;;;5093033;28;20435;-77
2023/01/26 09:14:54;;;;;;;10.23;5.13;;;;;;;;;;5093414;28;20028;-76
2023/01/26 09:17:20;;;;;;;12.00;5.43;;;;;;;;;;5097907;28;20035;-76
2023/01/26 09:19:46;;;;;;;10.60;5.83;;;;;;;;;;5093363;28;20035;-78
2023/01/26 09:22:12;;;;;;;11.97;5.50;;;;;;;;;;5060741;28;20053;-76
2023/01/26 09:24:37;;;;;;;11.67;5.40;;;;;;;;;;5060047;28;20374;-79
2023/01/26 09:27:03;;;;;;;12.53;5.80;;;;;;;;;;5059858;28;20385;-75
2023/01/26 09:29:29;;;;;;;8.40;5.63;;;;;;;;;;5059710;28;20027;-76
2023/01/26 09:31:54;;;;;;;14.53;6.33;;;;;;;;;;5060294;28;20046;-75
2023/01/26 09:34:20;;;;;;;10.60;5.67;;;;;;;;;;5059535;28;20064;-75
2023/01/26 09:36:46;;;;;;;11.33;5.43;;;;;;;;;;5059694;28;20354;-74
2023/01/26 09:39:12;;;;;;;9.77;6.57;;;;;;;;;;5059498;28;20365;-75
2023/01/26 09:41:47;;;;;;;12.20;6.07;;;;;;;;;;5060139;28;20035;-75
2023/01/26 09:44:23;;;;;;;8.17;5.50;;;;;;;;;;5059248;28;20028;-76
2023/01/26 09:46:58;;;;;;;11.10;5.73;;;;;;;;;;5076339;28;20192;-76
2023/01/26 09:49:42;;;;;;;10.07;5.27;;;;;;;;;;5059047;28;20466;-76
2023/01/26 09:52:11;;;;;;;11.60;6.67;;;;;;;;;;5076320;28;20461;-76
2023/01/26 09:54:36;;;;;;;8.63;5.03;;;;;;;;;;5075329;28;20067;-76
2023/01/26 09:57:12;;;;;;;10.97;6.10;;;;;;;;;;5059491;28;20888;-76
2023/01/26 09:59:42;;;;;;;12.13;6.20;;;;;;;;;;5076117;28;20084;-79
2023/01/26 10:02:08;;;;;;;8.63;6.07;;;;;;;;;;5077404;27;20031;-77
2023/01/26 10:04:38;;;;;;;10.67;6.33;;;;;;;;;;5117342;27;20381;-77
2023/01/26 10:07:11;;;;;;;10.80;6.00;;;;;;;;;;5134994;27;20475;-76
2023/01/26 10:09:46;;;;;;;12.05;5.55;;;;;;;;;;5117054;27;20031;-76
2023/01/26 10:12:18;;;;;;;26.13;7.37;;;;;;;;;;5099907;27;20548;-77
2023/01/26 10:14:59;;;;;;;10.70;6.10;;;;;;;;;;5117569;27;20035;-77
2023/01/26 10:17:37;;;;;;;11.27;5.97;;;;;;;;;;5112730;28;20027;-78
2023/01/26 10:20:06;;;;;;;11.93;5.70;;;;;;;;;;5098203;27;20050;-79
2023/01/26 10:22:39;;;;;;;11.43;6.07;;;;;;;;;;5083300;27;20361;-79
2023/01/26 10:25:12;;;;;;;10.67;6.20;;;;;;;;;;5100051;27;20035;-79
2023/01/26 10:27:38;;;;;;;13.57;6.10;;;;;;;;;;5116618;27;20394;-75
2023/01/26 10:30:04;;;;;;;13.00;6.33;;;;;;;;;;5099468;27;20038;-74
2023/01/26 10:32:30;;;;;;;11.90;6.70;;;;;;;;;;5100078;27;20031;-76
2023/01/26 10:34:56;;;;;;;14.13;7.93;;;;;;;;;;5083132;27;20027;-80
2023/01/26 10:37:28;;;;;;;12.93;7.70;;;;;;;;;;5082706;27;20087;-79
2023/01/26 10:40:03;;;;;;;14.23;7.00;;;;;;;;;;5116990;27;20118;-79
2023/01/26 10:42:31;;;;;;;12.77;7.03;;;;;;;;;;5084133;27;20045;-76
2023/01/26 10:44:58;;;;;;;12.70;6.97;;;;;;;;;;5083517;27;20046;-72
2023/01/26 10:47:24;;;;;;;11.93;6.47;;;;;;;;;;5098912;27;20057;-74
2023/01/26 10:49:50;;;;;;;13.50;6.43;;;;;;;;;;5082546;27;20039;-77
2023/01/26 10:52:24;;;;;;;13.60;7.17;;;;;;;;;;5082115;27;20043;-75
2023/01/26 10:55:09;;;;;;;15.47;6.43;;;;;;;;;;5117577;27;20035;-76
2023/01/26 10:57:40;;;;;;;15.37;7.03;;;;;;;;;;5099481;27;20063;-80
2023/01/26 11:00:21;;;;;;;13.37;6.73;;;;;;;;;;5082616;27;20456;-80
2023/01/26 11:02:46;;;;;;;;;;;;;;;;;;5100359;27;20659;-76
2023/01/26 11:05:14;;;;;;;12.17;6.10;;;;;;;;;;5082611;27;19907;-73
2023/01/26 11:07:41;;;;;;;13.27;5.90;;;;;;;;;;5116220;27;20050;-73
2023/01/26 11:10:27;;;;;;;10.27;6.50;;;;;;;;;;5081770;27;20050;-77
2023/01/26 11:13:07;;;;;;;12.10;6.60;;;;;;;;;;5084196;27;20385;-77
2023/01/26 11:15:38;;;;;;;12.57;6.97;;;;;;;;;;5116354;27;20043;-72
2023/01/26 11:18:12;;;;;;;13.85;6.78;;;;;;;;;;5115576;27;20469;-71
2023/01/26 11:20:50;;;;;;;11.37;6.50;;;;;;;;;;5116011;27;20046;-73
2023/01/26 11:23:21;;;;;;;14.07;7.10;;;;;;;;;;5098926;27;20030;-73
2023/01/26 11:25:53;;;;;;;14.77;7.00;;;;;;;;;;5082006;27;20069;-78
2023/01/26 11:28:30;;;;;;;12.83;6.70;;;;;;;;;;5097094;27;20037;-73
2023/01/26 11:31:10;;;;;;;11.93;6.50;;;;;;;;;;5129422;27;20487;-74
2023/01/26 11:33:38;;;;;;;13.57;7.10;;;;;;;;;;5112578;27;20042;-75
2023/01/26 11:36:10;;;;;;;13.30;6.13;;;;;;;;;;5097409;27;20027;-77
2023/01/26 11:38:40;;;;;;;9.70;6.07;;;;;;;;;;5092051;28;20050;-74
2023/01/26 11:41:09;;;;;;;12.03;6.03;;;;;;;;;;5061501;28;20039;-74
2023/01/26 11:43:38;;;;;;;12.07;6.20;;;;;;;;;;5071184;27;20062;-76
2023/01/26 11:46:06;;;;;;;13.67;6.53;;;;;;;;;;5079225;27;20043;-75
2023/01/26 11:48:33;;;;;;;16.40;6.30;;;;;;;;;;5109578;27;20366;-74
2023/01/26 11:51:06;;;;;;;14.07;6.90;;;;;;;;;;5131322;27;20035;-75
2023/01/26 11:53:38;;;;;;;13.40;6.57;;;;;;;;;;5112376;27;20039;-76
2023/01/26 11:56:09;;;;;;;15.07;6.57;;;;;;;;;;5097167;27;20034;-76
2023/01/26 11:58:36;;;;;;;11.70;5.77;;;;;;;;;;5126560;27;20479;-78
2023/01/26 12:01:27;;;;;;;10.53;6.10;;;;;;;;;;5095687;27;20038;-77
2023/01/26 12:03:54;;;;;;;16.77;7.28;;;;;;;;;;5095116;27;20127;-78
2023/01/26 12:06:41;;;;;;;14.73;6.53;;;;;;;;;;5097084;27;20068;-79
2023/01/26 12:09:17;;;;;;;14.43;6.40;;;;;;;;;;5109827;27;20163;-81
2023/01/26 12:12:04;;;;;;;11.97;6.67;;;;;;;;;;5113518;27;20508;-75
2023/01/26 12:14:37;;;;;;;13.50;6.47;;;;;;;;;;5106082;27;20079;-72
2023/01/26 12:17:02;;;;;;;12.13;6.70;;;;;;;;;;5096851;27;20041;-72
2023/01/26 12:19:43;;;;;;;16.13;7.00;;;;;;;;;;5078873;27;20027;-72
2023/01/26 12:22:09;;;;;;;;;;;;;;;;;;5081491;27;20140;-73
2023/01/26 12:24:43;;;;;;;10.57;6.20;;;;;;;;;;5097619;27;20320;-73
2023/01/26 12:27:16;;;;;;;15.60;6.20;;;;;;;;;;5098541;27;20074;-73
2023/01/26 12:29:51;;;;;;;10.33;5.97;;;;;;;;;;5091467;28;20098;-73
2023/01/26 12:32:18;;;;;;;12.40;6.63;;;;;;;;;;5127410;27;20036;-74
2023/01/26 12:34:44;;;;;;;14.27;7.23;;;;;;;;;;5094188;28;20035;-73
2023/01/26 12:37:31;;;;;;;13.23;6.67;;;;;;;;;;5094532;28;20134;-73
2023/01/26 12:40:10;;;;;;;12.97;5.93;;;;;;;;;;5093022;28;20067;-73
2023/01/26 12:42:42;;;;;;;13.23;6.23;;;;;;;;;;5059666;28;20100;-74
2023/01/26 12:45:11;;;;;;;13.90;6.70;;;;;;;;;;5093891;28;20051;-75
2023/01/26 12:47:49;;;;;;;14.43;6.53;;;;;;;;;;5093684;28;20046;-73
2023/01/26 12:50:21;;;;;;;12.50;6.60;;;;;;;;;;5075993;28;20044;-70
2023/01/26 12:52:52;;;;;;;13.43;7.03;;;;;;;;;;5077150;28;20088;-72
2023/01/26 12:55:20;;;;;;;15.07;6.57;;;;;;;;;;5093826;28;20126;-73
2023/01/26 12:58:18;;;;;;;14.20;6.83;;;;;;;;;;5111226;28;20039;-74
2023/01/26 13:01:10;;;;;;;16.30;6.40;;;;;;;;;;5118390;27;20043;-73
2023/01/26 13:03:38;;;;;;;17.37;6.93;;;;;;;;;;5090362;28;20036;-73
2023/01/26 13:06:09;;;;;;;10.10;5.77;;;;;;;;;;5108919;28;20056;-72
2023/01/26 13:08:35;;;;;;;17.73;6.13;;;;;;;;;;5060149;28;20173;-73
2023/01/26 13:11:08;;;;;;;14.57;7.10;;;;;;;;;;5075785;28;20522;-74
2023/01/26 13:13:53;;;;;;;15.23;6.90;;;;;;;;;;5092949;28;20484;-74
2023/01/26 13:16:21;;;;;;;12.67;6.50;;;;;;;;;;5093290;28;20042;-74
2023/01/26 13:18:48;;;;;;;13.53;6.97;;;;;;;;;;5083531;28;20035;-73
2023/01/26 13:21:43;;;;;;;11.63;6.43;;;;;;;;;;5092821;28;20042;-73
2023/01/26 13:24:15;;;;;;;14.43;6.83;;;;;;;;;;5074866;28;20386;-74
2023/01/26 13:26:42;;;;;;;13.13;6.70;;;;;;;;;;5094823;27;20515;-74
2023/01/26 13:29:26;;;;;;;18.57;7.40;;;;;;;;;;5094505;27;20073;-75
2023/01/26 13:31:56;;;;;;;12.23;5.93;;;;;;;;;;5106391;28;20122;-73
2023/01/26 13:34:27;;;;;;;15.60;7.20;;;;;;;;;;5129287;27;20039;-74
2023/01/26 13:36:54;;;;;;;12.75;5.85;;;;;;;;;;5118512;27;20027;-73
2023/01/26 13:39:28;;;;;;;14.33;6.70;;;;;;;;;;5111874;27;20031;-75
2023/01/26 13:41:54;;;;;;;12.57;6.70;;;;;;;;;;5118941;27;20077;-75
2023/01/26 13:44:22;;;;;;;14.77;6.73;;;;;;;;;;5094693;27;20043;-73
2023/01/26 13:46:55;;;;;;;14.17;6.87;;;;;;;;;;5109939;28;20043;-75
2023/01/26 13:49:49;;;;;;;15.60;6.70;;;;;;;;;;5095777;28;20210;-74
2023/01/26 13:52:17;;;;;;;12.97;6.90;;;;;;;;;;5094281;28;20043;-74
2023/01/26 13:54:44;;;;;;;13.97;7.70;;;;;;;;;;5079626;28;20031;-74
2023/01/26 13:57:10;;;;;;;14.50;7.10;;;;;;;;;;5113674;28;20043;-74
2023/01/26 13:59:47;;;;;;;17.30;6.93;;;;;;;;;;5095898;28;20030;-75
2023/01/26 14:02:21;;;;;;;15.47;8.00;;;;;;;;;;5113073;28;20031;-72
2023/01/26 14:04:52;;;;;;;12.40;6.43;;;;;;;;;;5112936;28;20054;-76
2023/01/26 14:07:18;;;;;;;18.25;9.25;;;;;;;;;;5112847;28;20062;-74
2023/01/26 14:09:48;;;;;;;14.60;7.47;;;;;;;;;;5095585;28;20476;-74
2023/01/26 14:12:26;;;;;;;14.38;7.70;;;;;;;;;;5095044;28;20035;-75
2023/01/26 14:14:56;;;;;;;12.23;7.07;;;;;;;;;;5112822;28;20115;-74
2023/01/26 14:17:26;;;;;;;14.33;6.97;;;;;;;;;;5095860;28;20054;-73
2023/01/26 14:19:52;;;;;;;15.10;6.72;;;;;;;;;;5113371;28;20058;-76
2023/01/26 14:22:18;;;;;;;12.73;7.23;;;;;;;;;;5081066;28;20070;-75
2023/01/26 14:24:47;;;;;;;15.93;7.77;;;;;;;;;;5080394;28;20045;-73
2023/01/26 14:27:45;;;;;;;14.23;7.17;;;;;;;;;;5131722;28;20046;-73
2023/01/26 14:30:37;;;;;;;16.27;7.90;;;;;;;;;;5058291;28;20380;-74
2023/01/26 14:33:14;;;;;;;14.17;6.97;;;;;;;;;;5081332;28;20043;-75
2023/01/26 14:35:40;;;;;;;15.90;7.70;;;;;;;;;;5138514;28;20100;-74
2023/01/26 14:38:17;;;;;;;12.53;7.33;;;;;;;;;;5120281;28;20039;-75
2023/01/26 14:40:49;;;;;;;15.77;6.80;;;;;;;;;;5130893;28;20171;-75
2023/01/26 14:43:15;;;;;;;15.20;7.37;;;;;;;;;;5097245;28;20050;-74
2023/01/26 14:45:45;;;;;;;12.73;7.47;;;;;;;;;;5112848;28;20104;-74
2023/01/26 14:48:15;;;;;;;14.20;8.00;;;;;;;;;;5099194;27;20031;-75
2023/01/26 14:50:42;;;;;;;17.10;7.85;;;;;;;;;;5135739;27;20091;-76
2023/01/26 14:53:16;;;;;;;14.40;7.50;;;;;;;;;;5101222;27;20123;-75
2023/01/26 14:55:42;;;;;;;15.30;7.57;;;;;;;;;;5100885;27;20035;-75
2023/01/26 14:58:28;;;;;;;17.50;8.23;;;;;;;;;;5100642;27;20520;-75
2023/01/26 15:00:54;;;;;;;12.57;7.40;;;;;;;;;;5082941;27;20039;-75
2023/01/26 15:03:26;;;;;;;19.00;7.87;;;;;;;;;;5117658;27;20057;-75
2023/01/26 15:06:06;;;;;;;13.97;7.33;;;;;;;;;;5134187;27;20055;-75
2023/01/26 15:08:31;;;;;;;18.37;8.90;;;;;;;;;;5117285;27;20034;-75
2023/01/26 15:12:15;;;;;;;15.13;8.50;;;;;;;;;;5100207;27;20035;-75
2023/01/26 15:13:45;;;;;;;16.83;8.70;;;;;;;;;;5100326;27;20066;-75
2023/01/26 15:16:16;;;;;;;15.83;8.43;;;;;;;;;;5117313;27;20115;-76
2023/01/26 15:18:42;;;;;;;18.20;8.95;;;;;;;;;;5118225;27;20366;-75
2023/01/26 15:21:17;;;;;;;21.90;10.17;;;;;;;;;;5099948;27;20041;-75
2023/01/26 15:23:45;;;;;;;16.50;8.97;;;;;;;;;;5117668;27;20088;-74
2023/01/26 15:26:27;;;;;;;17.07;9.30;;;;;;;;;;5082972;27;20035;-75
2023/01/26 15:28:54;;;;;;;20.63;9.40;;;;;;;;;;5136178;27;20374;-75
2023/01/26 15:31:21;;;;;;;16.97;8.93;;;;;;;;;;5100222;27;20505;-75
2023/01/26 15:33:49;;;;;;;17.50;9.93;;;;;;;;;;5103202;27;20346;-74
2023/01/26 15:36:39;;;;;;;19.33;9.23;;;;;;;;;;5116168;27;20060;-74